Hub


Voltar

 INFORMAÇÕES METEOROLÓGICAS

METAR FOR GCLP


ADDS - METARS form results

(2342 UTC 19 August 2019)
Data provider http://aviationweather.gov/metar/data/
 
METAR text: GCLP 192330Z 01025KT 9999 FEW020 23/19 Q1017 NOSIG
Conditions at: GCLP (LAS PALMAS/GANDO, ES) observed 2330 UTC 19 August 2019
Temperature: 23.0°C (73°F)
Dewpoint: 19.0°C (66°F) [RH = 78%]
Pressure (altimeter): 30.03 inches Hg (1017.0 mb)
Winds: from the N (10 degrees) at 29 MPH (25 knots; 12.9 m/s)
Visibility: 6 or more miles (10+ km)
Ceiling: at least 12,000 feet AGL
Clouds: few clouds at 2000 feet AGL
Weather: no significant weather observed at this time

METAR text: GCLP 192300Z 01022KT 9999 FEW020 23/19 Q1018 NOSIG
Conditions at: GCLP (LAS PALMAS/GANDO, ES) observed 2300 UTC 19 August 2019
Temperature: 23.0°C (73°F)
Dewpoint: 19.0°C (66°F) [RH = 78%]
Pressure (altimeter): 30.06 inches Hg (1018.0 mb)
Winds: from the N (10 degrees) at 25 MPH (22 knots; 11.3 m/s)
Visibility: 6 or more miles (10+ km)
Ceiling: at least 12,000 feet AGL
Clouds: few clouds at 2000 feet AGL
Weather: no significant weather observed at this time

Forecast for: GCLP (LAS PALMAS/GANDO, ES)
Text: TAF GCLP 192000Z 1921/2021 36021KT 9999 FEW020 TX27/2014Z TN22/2003Z
Forecast period: 2100 UTC 19 August 2019 to 2100 UTC 20 August 2019
Forecast type: FROM: standard forecast or significant change
Winds: from the N (360 degrees) at 24 MPH (21 knots; 10.8 m/s)
Visibility: 6 or more miles 10+ km)
Ceiling: at least 12,000 feet AGL
Clouds: few clouds at 2000 feet AGL
Weather: no significant weather forecast for this period


 MAPA DO AEROPORTO


 INFORMAÇÕES DA PISTA

Pista 03L Tamanho da pista 10171 ft Largura da pista 148 ft
Elevação da pista 78 ft Ranhura da pista 0 ft Proa da pista 22
Pista 21R Tamanho da pista 10171 ft Largura da pista 148 ft
Elevação da pista 33 ft Ranhura da pista 0 ft Proa da pista 202
Pista 03R Tamanho da pista 10171 ft Largura da pista 148 ft
Elevação da pista 69 ft Ranhura da pista 0 ft Proa da pista 22
Pista 21L Tamanho da pista 10171 ft Largura da pista 148 ft
Elevação da pista 27 ft Ranhura da pista 0 ft Proa da pista 202

 FREQUÊNCIAS DO AEROPORTO

Tipo APP Nome APP Frequência 120.9 MHZ
Tipo ATIS Nome ATIS Frequência 118.6 MHZ
Tipo GND Nome GND Frequência 121.7 MHZ
Tipo TWR Nome TWR Frequência 118.3 MHZ

 AUXÍLIOS DE NAVEGAÇÃO PRÓXIMOS AO AEROPORTO

Tipo VOR-DME Nome Gran Canaria Frequência 112900 KHZ
Tipo VOR-DME Nome Gran Canaria Frequência 115000 KHZ
Tipo TACAN Nome Gran Canaria Frequência 115600 KHZ
Tipo NDB Nome Gran Canaria Frequência 365 KHZ